Terminal Aerodrome Forecast
Issued by NWS Blacksburg, VA

Home | Current Version | Previous Version | Text Only | Print | Product List | Glossary On
Versions: 1 2 3 4 5 6 7 8 9 10 11 12 13 14 15 16 17 18 19 20 21 22 23 24 25 26 27 28 29 30 31 32 33 34 35 36 37 38 39 40
000
FTUS41 KRNK 220200 AAA
TAFBLF
TAF AMD
KBLF 220200Z 2202/2224 16007G15KT P6SM SCT015
     FM220800 13006KT P6SM OVC015
      TEMPO 2210/2214 5SM -RA BR OVC015
     FM221700 14005KT P6SM OVC025=

USA.gov is the U.S. government's official web portal to all federal, state and local government web resources and services.